sensor_id;sensor_type;location;lat;lon;timestamp;noise_LAeq;noise_LA_min;noise_LA_max;noise_LA01;noise_LA95
69668;Laerm;66534;52.370;4.832;2023-03-21T00:00:17;45.12;38.90;55.24;;
69668;Laerm;66534;52.370;4.832;2023-03-21T00:00:53;42.08;38.44;58.71;;
69668;Laerm;66534;52.370;4.832;2023-03-21T00:01:24;43.83;38.58;56.84;;
69668;Laerm;66534;52.370;4.832;2023-03-21T00:01:55;46.09;40.37;66.75;;
69668;Laerm;66534;52.370;4.832;2023-03-21T00:02:25;43.25;40.63;53.23;;
69668;Laerm;66534;52.370;4.832;2023-03-21T00:02:56;45.97;40.98;56.73;;
69668;Laerm;66534;52.370;4.832;2023-03-21T00:03:27;44.09;39.82;57.07;;
69668;Laerm;66534;52.370;4.832;2023-03-21T00:03:57;44.00;39.86;53.21;;
69668;Laerm;66534;52.370;4.832;2023-03-21T00:04:28;47.07;41.71;55.71;;
69668;Laerm;66534;52.370;4.832;2023-03-21T00:04:58;46.20;42.01;58.92;;
69668;Laerm;66534;52.370;4.832;2023-03-21T00:05:29;47.18;42.45;61.97;;
69668;Laerm;66534;52.370;4.832;2023-03-21T00:06:08;46.36;40.26;59.02;;
69668;Laerm;66534;52.370;4.832;2023-03-21T00:06:39;46.00;41.18;59.31;;
69668;Laerm;66534;52.370;4.832;2023-03-21T00:07:09;44.42;40.67;59.62;;
69668;Laerm;66534;52.370;4.832;2023-03-21T00:07:40;48.58;40.96;60.27;;
69668;Laerm;66534;52.370;4.832;2023-03-21T00:08:10;43.13;39.76;56.34;;
69668;Laerm;66534;52.370;4.832;2023-03-21T00:08:41;44.55;40.04;60.02;;
69668;Laerm;66534;52.370;4.832;2023-03-21T00:09:11;44.82;40.85;58.21;;
69668;Laerm;66534;52.370;4.832;2023-03-21T00:09:42;44.19;39.73;55.86;;
69668;Laerm;66534;52.370;4.832;2023-03-21T00:10:13;45.68;40.05;59.30;;
69668;Laerm;66534;52.370;4.832;2023-03-21T00:10:44;43.73;39.33;59.50;;
69668;Laerm;66534;52.370;4.832;2023-03-21T00:11:14;41.29;37.86;58.15;;
69668;Laerm;66534;52.370;4.832;2023-03-21T00:11:46;44.51;40.79;54.00;;
69668;Laerm;66534;52.370;4.832;2023-03-21T00:12:17;44.42;39.51;60.21;;
69668;Laerm;66534;52.370;4.832;2023-03-21T00:12:50;42.12;37.27;51.62;;
69668;Laerm;66534;52.370;4.832;2023-03-21T00:13:25;43.03;38.23;61.57;;
69668;Laerm;66534;52.370;4.832;2023-03-21T00:13:57;44.45;39.35;59.06;;
69668;Laerm;66534;52.370;4.832;2023-03-21T00:14:31;44.98;41.13;60.01;;
69668;Laerm;66534;52.370;4.832;2023-03-21T00:15:06;43.65;39.79;52.45;;
69668;Laerm;66534;52.370;4.832;2023-03-21T00:15:37;41.88;38.15;58.28;;
69668;Laerm;66534;52.370;4.832;2023-03-21T00:16:19;44.05;37.01;64.49;;
69668;Laerm;66534;52.370;4.832;2023-03-21T00:16:49;43.66;38.32;50.91;;
69668;Laerm;66534;52.370;4.832;2023-03-21T00:17:20;42.68;38.47;60.39;;
69668;Laerm;66534;52.370;4.832;2023-03-21T00:17:54;43.66;38.72;61.63;;
69668;Laerm;66534;52.370;4.832;2023-03-21T00:18:32;41.89;38.29;59.06;;
69668;Laerm;66534;52.370;4.832;2023-03-21T00:19:06;44.53;38.13;60.80;;
69668;Laerm;66534;52.370;4.832;2023-03-21T00:19:38;46.87;39.32;67.25;;
69668;Laerm;66534;52.370;4.832;2023-03-21T00:20:10;48.43;40.60;59.47;;
69668;Laerm;66534;52.370;4.832;2023-03-21T00:21:00;43.29;38.97;63.89;;
69668;Laerm;66534;52.370;4.832;2023-03-21T00:21:31;48.83;42.48;58.81;;
69668;Laerm;66534;52.370;4.832;2023-03-21T00:22:02;49.10;42.92;55.49;;
69668;Laerm;66534;52.370;4.832;2023-03-21T00:22:34;47.75;41.66;56.76;;
69668;Laerm;66534;52.370;4.832;2023-03-21T00:23:04;47.00;40.81;59.11;;
69668;Laerm;66534;52.370;4.832;2023-03-21T00:23:35;50.80;44.05;64.84;;
69668;Laerm;66534;52.370;4.832;2023-03-21T00:24:05;46.01;41.98;53.73;;
69668;Laerm;66534;52.370;4.832;2023-03-21T00:24:37;44.37;40.64;55.26;;
69668;Laerm;66534;52.370;4.832;2023-03-21T00:25:09;47.00;40.89;58.08;;
69668;Laerm;66534;52.370;4.832;2023-03-21T00:25:39;46.05;40.98;56.87;;
69668;Laerm;66534;52.370;4.832;2023-03-21T00:26:10;43.11;38.80;63.60;;
69668;Laerm;66534;52.370;4.832;2023-03-21T00:26:41;41.99;38.15;61.69;;
69668;Laerm;66534;52.370;4.832;2023-03-21T00:27:11;46.25;39.31;54.84;;
69668;Laerm;66534;52.370;4.832;2023-03-21T00:27:42;42.29;38.14;59.03;;
69668;Laerm;66534;52.370;4.832;2023-03-21T00:28:13;44.54;39.13;57.61;;
69668;Laerm;66534;52.370;4.832;2023-03-21T00:28:43;44.04;40.02;64.07;;
69668;Laerm;66534;52.370;4.832;2023-03-21T00:29:14;44.83;40.02;57.51;;
69668;Laerm;66534;52.370;4.832;2023-03-21T00:29:45;43.28;39.69;54.52;;
69668;Laerm;66534;52.370;4.832;2023-03-21T00:30:15;44.64;40.62;58.90;;
69668;Laerm;66534;52.370;4.832;2023-03-21T00:30:46;42.59;37.72;57.51;;
69668;Laerm;66534;52.370;4.832;2023-03-21T00:31:17;43.67;39.18;57.86;;
69668;Laerm;66534;52.370;4.832;2023-03-21T00:31:47;42.78;39.56;60.25;;
69668;Laerm;66534;52.370;4.832;2023-03-21T00:32:19;44.40;39.57;53.91;;
69668;Laerm;66534;52.370;4.832;2023-03-21T00:32:50;45.14;38.75;55.07;;
69668;Laerm;66534;52.370;4.832;2023-03-21T00:33:20;42.84;38.92;59.01;;
69668;Laerm;66534;52.370;4.832;2023-03-21T00:33:51;41.62;36.92;58.76;;
69668;Laerm;66534;52.370;4.832;2023-03-21T00:34:21;43.06;38.20;51.07;;
69668;Laerm;66534;52.370;4.832;2023-03-21T00:34:52;46.50;40.19;55.41;;
69668;Laerm;66534;52.370;4.832;2023-03-21T00:35:22;46.72;42.81;58.10;;
69668;Laerm;66534;52.370;4.832;2023-03-21T00:35:53;46.27;40.39;59.95;;
69668;Laerm;66534;52.370;4.832;2023-03-21T00:36:24;43.03;39.43;59.93;;
69668;Laerm;66534;52.370;4.832;2023-03-21T00:36:55;41.66;38.28;56.59;;
69668;Laerm;66534;52.370;4.832;2023-03-21T00:37:25;41.65;38.40;56.78;;
69668;Laerm;66534;52.370;4.832;2023-03-21T00:37:57;39.72;36.66;51.79;;
69668;Laerm;66534;52.370;4.832;2023-03-21T00:38:28;41.77;38.71;56.44;;
69668;Laerm;66534;52.370;4.832;2023-03-21T00:38:58;44.65;38.98;54.72;;
69668;Laerm;66534;52.370;4.832;2023-03-21T00:39:29;43.08;36.90;56.68;;
69668;Laerm;66534;52.370;4.832;2023-03-21T00:40:01;39.64;36.04;58.33;;
69668;Laerm;66534;52.370;4.832;2023-03-21T00:40:31;43.94;37.59;53.89;;
69668;Laerm;66534;52.370;4.832;2023-03-21T00:41:06;41.75;37.17;54.32;;
69668;Laerm;66534;52.370;4.832;2023-03-21T00:41:37;42.33;37.76;57.40;;
69668;Laerm;66534;52.370;4.832;2023-03-21T00:42:07;43.73;38.68;60.29;;
69668;Laerm;66534;52.370;4.832;2023-03-21T00:42:38;46.23;39.61;54.84;;
69668;Laerm;66534;52.370;4.832;2023-03-21T00:43:09;42.79;38.70;53.67;;
69668;Laerm;66534;52.370;4.832;2023-03-21T00:43:46;41.34;36.38;59.46;;
69668;Laerm;66534;52.370;4.832;2023-03-21T00:44:17;43.25;36.65;53.56;;
69668;Laerm;66534;52.370;4.832;2023-03-21T00:44:47;42.52;38.19;49.70;;
69668;Laerm;66534;52.370;4.832;2023-03-21T00:45:17;41.91;38.00;54.93;;
69668;Laerm;66534;52.370;4.832;2023-03-21T00:45:50;40.15;36.77;48.04;;
69668;Laerm;66534;52.370;4.832;2023-03-21T00:46:20;39.59;36.90;54.01;;
69668;Laerm;66534;52.370;4.832;2023-03-21T00:46:50;40.74;37.31;51.11;;
69668;Laerm;66534;52.370;4.832;2023-03-21T00:47:21;41.54;37.62;55.65;;
69668;Laerm;66534;52.370;4.832;2023-03-21T00:47:51;41.74;38.33;53.41;;
69668;Laerm;66534;52.370;4.832;2023-03-21T00:48:22;42.40;36.83;48.81;;
69668;Laerm;66534;52.370;4.832;2023-03-21T00:48:52;38.62;36.32;52.64;;
69668;Laerm;66534;52.370;4.832;2023-03-21T00:49:22;39.22;36.29;58.70;;
69668;Laerm;66534;52.370;4.832;2023-03-21T00:49:53;39.27;36.38;53.52;;
69668;Laerm;66534;52.370;4.832;2023-03-21T00:50:24;41.33;37.55;59.99;;
69668;Laerm;66534;52.370;4.832;2023-03-21T00:50:56;44.95;38.58;54.72;;
69668;Laerm;66534;52.370;4.832;2023-03-21T00:51:28;41.79;37.87;55.74;;
69668;Laerm;66534;52.370;4.832;2023-03-21T00:52:00;41.65;37.66;59.08;;
69668;Laerm;66534;52.370;4.832;2023-03-21T00:52:31;41.14;37.69;51.25;;
69668;Laerm;66534;52.370;4.832;2023-03-21T00:53:01;43.47;39.95;58.74;;
69668;Laerm;66534;52.370;4.832;2023-03-21T00:53:31;44.52;41.23;56.91;;
69668;Laerm;66534;52.370;4.832;2023-03-21T00:54:02;42.14;38.23;58.36;;
69668;Laerm;66534;52.370;4.832;2023-03-21T00:54:35;42.15;37.33;59.54;;
69668;Laerm;66534;52.370;4.832;2023-03-21T00:55:09;39.71;36.23;51.79;;
69668;Laerm;66534;52.370;4.832;2023-03-21T00:55:42;39.72;36.70;57.51;;
69668;Laerm;66534;52.370;4.832;2023-03-21T00:56:13;43.46;37.47;51.40;;
69668;Laerm;66534;52.370;4.832;2023-03-21T00:56:43;44.35;40.14;52.99;;
69668;Laerm;66534;52.370;4.832;2023-03-21T00:57:14;41.59;37.94;61.16;;
69668;Laerm;66534;52.370;4.832;2023-03-21T00:57:44;41.30;38.09;48.06;;
69668;Laerm;66534;52.370;4.832;2023-03-21T00:58:16;41.85;36.19;51.87;;
69668;Laerm;66534;52.370;4.832;2023-03-21T00:58:46;38.13;35.19;56.10;;
69668;Laerm;66534;52.370;4.832;2023-03-21T00:59:17;42.45;35.92;52.70;;
69668;Laerm;66534;52.370;4.832;2023-03-21T00:59:47;41.56;37.79;53.58;;
69668;Laerm;66534;52.370;4.832;2023-03-21T01:00:18;39.80;35.88;59.00;;
69668;Laerm;66534;52.370;4.832;2023-03-21T01:00:49;40.40;36.87;51.04;;
69668;Laerm;66534;52.370;4.832;2023-03-21T01:01:20;43.28;37.25;66.69;;
69668;Laerm;66534;52.370;4.832;2023-03-21T01:01:50;40.55;36.62;62.22;;
69668;Laerm;66534;52.370;4.832;2023-03-21T01:02:23;38.85;35.60;53.90;;
69668;Laerm;66534;52.370;4.832;2023-03-21T01:02:56;38.86;35.83;56.41;;
69668;Laerm;66534;52.370;4.832;2023-03-21T01:03:27;45.51;37.61;54.98;;
69668;Laerm;66534;52.370;4.832;2023-03-21T01:03:59;44.41;38.87;62.79;;
69668;Laerm;66534;52.370;4.832;2023-03-21T01:04:34;42.70;37.92;61.13;;
69668;Laerm;66534;52.370;4.832;2023-03-21T01:05:05;41.34;36.32;53.49;;
69668;Laerm;66534;52.370;4.832;2023-03-21T01:05:41;40.39;35.06;61.34;;
69668;Laerm;66534;52.370;4.832;2023-03-21T01:06:31;39.40;36.16;55.56;;
69668;Laerm;66534;52.370;4.832;2023-03-21T01:07:02;42.54;38.52;57.66;;
69668;Laerm;66534;52.370;4.832;2023-03-21T01:07:32;42.86;38.59;60.41;;
69668;Laerm;66534;52.370;4.832;2023-03-21T01:08:03;41.89;37.53;62.29;;
69668;Laerm;66534;52.370;4.832;2023-03-21T01:08:36;46.33;38.97;56.15;;
69668;Laerm;66534;52.370;4.832;2023-03-21T01:09:12;49.15;42.90;60.91;;
69668;Laerm;66534;52.370;4.832;2023-03-21T01:09:43;40.38;36.44;48.23;;
69668;Laerm;66534;52.370;4.832;2023-03-21T01:10:13;40.51;36.88;53.81;;
69668;Laerm;66534;52.370;4.832;2023-03-21T01:10:46;44.21;39.76;52.62;;
69668;Laerm;66534;52.370;4.832;2023-03-21T01:11:19;43.34;38.37;56.98;;
69668;Laerm;66534;52.370;4.832;2023-03-21T01:11:51;39.51;36.67;56.99;;
69668;Laerm;66534;52.370;4.832;2023-03-21T01:12:22;39.80;35.71;63.26;;
69668;Laerm;66534;52.370;4.832;2023-03-21T01:12:52;43.63;36.27;53.59;;
69668;Laerm;66534;52.370;4.832;2023-03-21T01:13:24;41.80;36.82;60.33;;
69668;Laerm;66534;52.370;4.832;2023-03-21T01:13:55;41.55;37.33;60.32;;
69668;Laerm;66534;52.370;4.832;2023-03-21T01:14:25;40.43;36.34;57.74;;
69668;Laerm;66534;52.370;4.832;2023-03-21T01:14:56;38.47;35.60;57.17;;
69668;Laerm;66534;52.370;4.832;2023-03-21T01:15:26;40.52;35.86;63.49;;
69668;Laerm;66534;52.370;4.832;2023-03-21T01:15:57;40.47;36.24;60.57;;
69668;Laerm;66534;52.370;4.832;2023-03-21T01:16:28;41.22;36.41;63.63;;
69668;Laerm;66534;52.370;4.832;2023-03-21T01:16:58;39.67;35.69;61.29;;
69668;Laerm;66534;52.370;4.832;2023-03-21T01:17:29;38.51;34.90;60.89;;
69668;Laerm;66534;52.370;4.832;2023-03-21T01:18:00;39.06;35.57;62.14;;
69668;Laerm;66534;52.370;4.832;2023-03-21T01:18:31;40.24;35.83;62.76;;
69668;Laerm;66534;52.370;4.832;2023-03-21T01:19:03;40.56;35.98;55.21;;
69668;Laerm;66534;52.370;4.832;2023-03-21T01:19:34;42.45;38.05;57.78;;
69668;Laerm;66534;52.370;4.832;2023-03-21T01:20:05;42.20;37.14;60.33;;
69668;Laerm;66534;52.370;4.832;2023-03-21T01:20:35;45.70;37.88;61.02;;
69668;Laerm;66534;52.370;4.832;2023-03-21T01:21:09;46.55;40.51;58.13;;
69668;Laerm;66534;52.370;4.832;2023-03-21T01:21:40;44.17;38.22;61.46;;
69668;Laerm;66534;52.370;4.832;2023-03-21T01:22:11;42.09;37.59;62.70;;
69668;Laerm;66534;52.370;4.832;2023-03-21T01:22:41;40.96;36.13;59.17;;
69668;Laerm;66534;52.370;4.832;2023-03-21T01:23:13;41.71;35.67;56.27;;
69668;Laerm;66534;52.370;4.832;2023-03-21T01:23:44;39.94;35.18;57.93;;
69668;Laerm;66534;52.370;4.832;2023-03-21T01:24:15;40.80;35.33;61.17;;
69668;Laerm;66534;52.370;4.832;2023-03-21T01:24:45;40.82;36.04;62.26;;
69668;Laerm;66534;52.370;4.832;2023-03-21T01:25:16;41.11;36.39;58.56;;
69668;Laerm;66534;52.370;4.832;2023-03-21T01:25:48;45.23;37.47;60.65;;
69668;Laerm;66534;52.370;4.832;2023-03-21T01:26:19;41.44;37.26;58.46;;
69668;Laerm;66534;52.370;4.832;2023-03-21T01:26:50;44.13;37.05;58.30;;
69668;Laerm;66534;52.370;4.832;2023-03-21T01:27:20;42.95;37.47;56.72;;
69668;Laerm;66534;52.370;4.832;2023-03-21T01:27:50;39.87;36.15;57.31;;
69668;Laerm;66534;52.370;4.832;2023-03-21T01:28:23;39.51;35.62;55.74;;
69668;Laerm;66534;52.370;4.832;2023-03-21T01:28:54;40.40;35.51;56.79;;
69668;Laerm;66534;52.370;4.832;2023-03-21T01:29:25;40.96;35.02;59.54;;
69668;Laerm;66534;52.370;4.832;2023-03-21T01:29:55;39.02;34.51;55.25;;
69668;Laerm;66534;52.370;4.832;2023-03-21T01:30:26;40.90;34.32;63.79;;
69668;Laerm;66534;52.370;4.832;2023-03-21T01:30:56;42.89;36.29;56.61;;
69668;Laerm;66534;52.370;4.832;2023-03-21T01:31:27;41.93;36.88;56.82;;
69668;Laerm;66534;52.370;4.832;2023-03-21T01:31:57;43.77;36.08;52.97;;
69668;Laerm;66534;52.370;4.832;2023-03-21T01:32:27;41.88;35.19;67.54;;
69668;Laerm;66534;52.370;4.832;2023-03-21T01:32:58;40.42;35.07;60.77;;
69668;Laerm;66534;52.370;4.832;2023-03-21T01:33:29;43.71;35.87;59.83;;
69668;Laerm;66534;52.370;4.832;2023-03-21T01:33:59;39.15;35.35;57.81;;
69668;Laerm;66534;52.370;4.832;2023-03-21T01:34:30;40.77;34.87;62.56;;
69668;Laerm;66534;52.370;4.832;2023-03-21T01:35:00;38.96;34.68;58.16;;
69668;Laerm;66534;52.370;4.832;2023-03-21T01:35:31;39.91;35.06;58.67;;
69668;Laerm;66534;52.370;4.832;2023-03-21T01:36:02;39.02;34.71;61.19;;
69668;Laerm;66534;52.370;4.832;2023-03-21T01:36:33;39.59;34.87;58.05;;
69668;Laerm;66534;52.370;4.832;2023-03-21T01:37:03;41.39;35.93;58.51;;
69668;Laerm;66534;52.370;4.832;2023-03-21T01:37:33;41.59;36.97;50.24;;
69668;Laerm;66534;52.370;4.832;2023-03-21T01:38:04;41.97;37.46;64.00;;
69668;Laerm;66534;52.370;4.832;2023-03-21T01:38:34;43.92;37.29;56.31;;
69668;Laerm;66534;52.370;4.832;2023-03-21T01:39:05;41.96;36.57;60.10;;
69668;Laerm;66534;52.370;4.832;2023-03-21T01:39:36;43.13;39.15;58.56;;
69668;Laerm;66534;52.370;4.832;2023-03-21T01:40:06;44.34;39.31;58.90;;
69668;Laerm;66534;52.370;4.832;2023-03-21T01:40:44;41.01;35.65;60.00;;
69668;Laerm;66534;52.370;4.832;2023-03-21T01:41:38;40.85;34.82;59.79;;
69668;Laerm;66534;52.370;4.832;2023-03-21T01:42:12;40.22;35.70;60.60;;
69668;Laerm;66534;52.370;4.832;2023-03-21T01:42:42;40.76;37.25;59.20;;
69668;Laerm;66534;52.370;4.832;2023-03-21T01:43:55;40.63;35.92;62.92;;
69668;Laerm;66534;52.370;4.832;2023-03-21T01:44:27;40.83;36.74;54.05;;
69668;Laerm;66534;52.370;4.832;2023-03-21T01:44:58;41.95;36.05;59.84;;
69668;Laerm;66534;52.370;4.832;2023-03-21T01:47:08;39.10;35.04;56.76;;
69668;Laerm;66534;52.370;4.832;2023-03-21T01:47:39;39.22;34.80;60.42;;
69668;Laerm;66534;52.370;4.832;2023-03-21T01:48:09;38.91;34.18;57.05;;
69668;Laerm;66534;52.370;4.832;2023-03-21T01:48:42;41.05;35.32;58.16;;
69668;Laerm;66534;52.370;4.832;2023-03-21T01:49:20;42.14;36.92;58.72;;
69668;Laerm;66534;52.370;4.832;2023-03-21T01:49:58;41.71;38.15;59.57;;
69668;Laerm;66534;52.370;4.832;2023-03-21T01:50:30;43.77;39.32;57.28;;
69668;Laerm;66534;52.370;4.832;2023-03-21T01:51:01;44.60;37.66;59.76;;
69668;Laerm;66534;52.370;4.832;2023-03-21T01:51:36;40.55;35.77;59.87;;
69668;Laerm;66534;52.370;4.832;2023-03-21T01:52:09;38.86;35.28;55.36;;
69668;Laerm;66534;52.370;4.832;2023-03-21T01:52:42;41.59;35.62;61.46;;
69668;Laerm;66534;52.370;4.832;2023-03-21T01:53:18;41.75;35.85;64.26;;
69668;Laerm;66534;52.370;4.832;2023-03-21T01:53:50;40.87;34.92;60.24;;
69668;Laerm;66534;52.370;4.832;2023-03-21T01:54:27;38.57;35.46;54.27;;
69668;Laerm;66534;52.370;4.832;2023-03-21T01:54:58;43.58;36.04;59.88;;
69668;Laerm;66534;52.370;4.832;2023-03-21T01:55:31;42.00;35.83;60.15;;
69668;Laerm;66534;52.370;4.832;2023-03-21T01:56:27;40.24;35.38;51.85;;
69668;Laerm;66534;52.370;4.832;2023-03-21T01:56:56;39.68;35.03;61.35;;
69668;Laerm;66534;52.370;4.832;2023-03-21T01:57:31;40.24;34.92;62.31;;
69668;Laerm;66534;52.370;4.832;2023-03-21T01:58:04;39.92;35.83;61.52;;
69668;Laerm;66534;52.370;4.832;2023-03-21T01:58:35;39.62;34.28;59.89;;
69668;Laerm;66534;52.370;4.832;2023-03-21T01:59:57;42.16;34.62;61.46;;
69668;Laerm;66534;52.370;4.832;2023-03-21T02:00:04;44.22;37.73;62.51;;
69668;Laerm;66534;52.370;4.832;2023-03-21T02:00:41;45.89;37.66;59.96;;
69668;Laerm;66534;52.370;4.832;2023-03-21T02:01:12;44.04;36.77;54.53;;
69668;Laerm;66534;52.370;4.832;2023-03-21T02:01:45;41.92;36.45;62.99;;
69668;Laerm;66534;52.370;4.832;2023-03-21T02:02:27;40.95;35.09;58.24;;
69668;Laerm;66534;52.370;4.832;2023-03-21T02:03:02;40.25;35.59;58.88;;
69668;Laerm;66534;52.370;4.832;2023-03-21T02:03:34;42.28;37.10;58.52;;
69668;Laerm;66534;52.370;4.832;2023-03-21T02:04:07;41.71;35.22;59.80;;
69668;Laerm;66534;52.370;4.832;2023-03-21T02:04:39;43.29;36.60;60.47;;
69668;Laerm;66534;52.370;4.832;2023-03-21T02:05:10;45.26;38.29;61.45;;
69668;Laerm;66534;52.370;4.832;2023-03-21T02:05:52;43.48;37.57;66.10;;
69668;Laerm;66534;52.370;4.832;2023-03-21T02:07:06;42.06;36.25;60.67;;
69668;Laerm;66534;52.370;4.832;2023-03-21T02:07:39;43.29;36.58;58.44;;
69668;Laerm;66534;52.370;4.832;2023-03-21T02:08:11;41.78;37.58;60.64;;
69668;Laerm;66534;52.370;4.832;2023-03-21T02:08:42;44.72;36.74;59.83;;
69668;Laerm;66534;52.370;4.832;2023-03-21T02:09:17;40.89;35.36;53.57;;
69668;Laerm;66534;52.370;4.832;2023-03-21T02:09:50;43.39;38.55;61.71;;
69668;Laerm;66534;52.370;4.832;2023-03-21T02:10:21;47.00;40.09;59.27;;
69668;Laerm;66534;52.370;4.832;2023-03-21T02:10:51;42.53;37.29;60.65;;
69668;Laerm;66534;52.370;4.832;2023-03-21T02:11:22;42.10;36.92;64.48;;
69668;Laerm;66534;52.370;4.832;2023-03-21T02:11:53;42.18;35.89;64.78;;
69668;Laerm;66534;52.370;4.832;2023-03-21T02:12:25;40.79;35.87;55.77;;
69668;Laerm;66534;52.370;4.832;2023-03-21T02:12:58;42.67;37.56;60.50;;
69668;Laerm;66534;52.370;4.832;2023-03-21T02:13:37;44.63;38.63;58.86;;
69668;Laerm;66534;52.370;4.832;2023-03-21T02:14:12;41.78;36.04;58.53;;
69668;Laerm;66534;52.370;4.832;2023-03-21T02:14:44;41.49;35.72;60.13;;
69668;Laerm;66534;52.370;4.832;2023-03-21T02:15:16;41.07;35.18;59.91;;
69668;Laerm;66534;52.370;4.832;2023-03-21T02:15:58;42.29;35.76;61.89;;
69668;Laerm;66534;52.370;4.832;2023-03-21T02:16:36;43.38;35.16;63.65;;
69668;Laerm;66534;52.370;4.832;2023-03-21T02:17:25;44.09;36.86;58.78;;
69668;Laerm;66534;52.370;4.832;2023-03-21T02:18:16;41.59;35.46;57.23;;
69668;Laerm;66534;52.370;4.832;2023-03-21T02:19:02;42.95;35.75;62.62;;
69668;Laerm;66534;52.370;4.832;2023-03-21T02:22:42;71.08;34.96;87.83;;
69668;Laerm;66534;52.370;4.832;2023-03-21T02:23:55;43.79;37.40;61.64;;
69668;Laerm;66534;52.370;4.832;2023-03-21T02:27:23;45.14;37.03;59.68;;
69668;Laerm;66534;52.370;4.832;2023-03-21T02:28:50;39.75;34.56;50.99;;
69668;Laerm;66534;52.370;4.832;2023-03-21T02:30:26;43.79;34.85;71.33;;
69668;Laerm;66534;52.370;4.832;2023-03-21T02:31:35;42.00;34.93;63.41;;
69668;Laerm;66534;52.370;4.832;2023-03-21T02:32:58;42.87;36.47;59.24;;
69668;Laerm;66534;52.370;4.832;2023-03-21T02:36:29;40.90;34.28;61.01;;
69668;Laerm;66534;52.370;4.832;2023-03-21T02:37:15;43.02;35.47;67.29;;
69668;Laerm;66534;52.370;4.832;2023-03-21T02:39:09;40.26;35.01;59.70;;
69668;Laerm;66534;52.370;4.832;2023-03-21T02:40:32;42.08;34.69;59.60;;
69668;Laerm;66534;52.370;4.832;2023-03-21T02:41:13;40.27;34.87;57.47;;
69668;Laerm;66534;52.370;4.832;2023-03-21T02:43:42;41.10;35.03;56.74;;
69668;Laerm;66534;52.370;4.832;2023-03-21T02:45:37;40.68;35.34;57.16;;
69668;Laerm;66534;52.370;4.832;2023-03-21T02:46:16;41.17;35.34;60.00;;
69668;Laerm;66534;52.370;4.832;2023-03-21T02:46:58;41.55;35.89;57.85;;
69668;Laerm;66534;52.370;4.832;2023-03-21T02:47:41;40.43;35.00;52.00;;
69668;Laerm;66534;52.370;4.832;2023-03-21T02:48:31;43.10;36.37;56.96;;
69668;Laerm;66534;52.370;4.832;2023-03-21T02:50:08;43.82;37.43;56.68;;
69668;Laerm;66534;52.370;4.832;2023-03-21T02:50:46;41.08;36.69;55.12;;
69668;Laerm;66534;52.370;4.832;2023-03-21T02:51:21;40.73;35.36;56.16;;
69668;Laerm;66534;52.370;4.832;2023-03-21T02:51:53;40.29;34.87;51.77;;
69668;Laerm;66534;52.370;4.832;2023-03-21T02:52:28;40.99;36.23;58.68;;
69668;Laerm;66534;52.370;4.832;2023-03-21T02:53:03;40.14;35.14;59.56;;
69668;Laerm;66534;52.370;4.832;2023-03-21T02:53:38;43.06;37.86;58.75;;
69668;Laerm;66534;52.370;4.832;2023-03-21T02:54:13;45.46;35.45;55.84;;
69668;Laerm;66534;52.370;4.832;2023-03-21T02:54:46;47.88;40.40;60.44;;
69668;Laerm;66534;52.370;4.832;2023-03-21T02:55:24;43.68;36.81;56.83;;
69668;Laerm;66534;52.370;4.832;2023-03-21T02:55:55;46.36;36.09;74.69;;
69668;Laerm;66534;52.370;4.832;2023-03-21T02:56:27;40.96;36.29;59.92;;
69668;Laerm;66534;52.370;4.832;2023-03-21T02:56:57;43.80;36.77;58.23;;
69668;Laerm;66534;52.370;4.832;2023-03-21T02:57:30;41.41;37.77;59.30;;
69668;Laerm;66534;52.370;4.832;2023-03-21T02:58:01;43.30;37.52;51.54;;
69668;Laerm;66534;52.370;4.832;2023-03-21T02:58:32;41.06;36.40;62.73;;
69668;Laerm;66534;52.370;4.832;2023-03-21T02:59:04;40.84;36.82;62.15;;
69668;Laerm;66534;52.370;4.832;2023-03-21T02:59:37;40.60;36.75;54.48;;
69668;Laerm;66534;52.370;4.832;2023-03-21T03:00:10;42.93;36.53;67.53;;
69668;Laerm;66534;52.370;4.832;2023-03-21T03:00:42;41.10;35.66;60.65;;
69668;Laerm;66534;52.370;4.832;2023-03-21T03:01:13;40.18;35.39;57.49;;
69668;Laerm;66534;52.370;4.832;2023-03-21T03:01:44;41.50;36.74;57.57;;
69668;Laerm;66534;52.370;4.832;2023-03-21T03:02:19;42.37;37.04;56.77;;
69668;Laerm;66534;52.370;4.832;2023-03-21T03:02:50;40.04;36.13;57.90;;
69668;Laerm;66534;52.370;4.832;2023-03-21T03:03:21;40.04;35.79;62.00;;
69668;Laerm;66534;52.370;4.832;2023-03-21T03:03:52;40.84;36.23;58.19;;
69668;Laerm;66534;52.370;4.832;2023-03-21T03:04:24;41.75;37.48;56.72;;
69668;Laerm;66534;52.370;4.832;2023-03-21T03:04:58;41.66;36.61;61.35;;
69668;Laerm;66534;52.370;4.832;2023-03-21T03:05:33;43.32;38.68;58.85;;
69668;Laerm;66534;52.370;4.832;2023-03-21T03:06:21;44.69;37.27;59.16;;
69668;Laerm;66534;52.370;4.832;2023-03-21T03:07:19;42.25;36.74;58.27;;
69668;Laerm;66534;52.370;4.832;2023-03-21T03:09:51;44.45;38.95;60.09;;
69668;Laerm;66534;52.370;4.832;2023-03-21T03:11:34;44.45;39.10;60.12;;
69668;Laerm;66534;52.370;4.832;2023-03-21T03:12:25;42.29;38.06;57.59;;
69668;Laerm;66534;52.370;4.832;2023-03-21T03:14:41;43.96;37.26;65.30;;
69668;Laerm;66534;52.370;4.832;2023-03-21T03:18:01;43.19;37.02;59.88;;
69668;Laerm;66534;52.370;4.832;2023-03-21T03:19:06;42.64;36.13;61.34;;
69668;Laerm;66534;52.370;4.832;2023-03-21T03:20:41;41.90;35.88;63.01;;
69668;Laerm;66534;52.370;4.832;2023-03-21T03:21:50;42.97;36.25;59.26;;
69668;Laerm;66534;52.370;4.832;2023-03-21T03:22:34;41.95;36.66;53.68;;
69668;Laerm;66534;52.370;4.832;2023-03-21T03:23:19;44.59;37.18;61.96;;
69668;Laerm;66534;52.370;4.832;2023-03-21T03:25:49;44.70;36.60;65.52;;
69668;Laerm;66534;52.370;4.832;2023-03-21T03:26:29;42.10;35.65;60.73;;
69668;Laerm;66534;52.370;4.832;2023-03-21T03:27:09;42.17;37.32;63.07;;
69668;Laerm;66534;52.370;4.832;2023-03-21T03:27:43;42.27;37.45;61.03;;
69668;Laerm;66534;52.370;4.832;2023-03-21T03:28:16;41.79;36.66;55.39;;
69668;Laerm;66534;52.370;4.832;2023-03-21T03:28:51;41.47;36.36;60.31;;
69668;Laerm;66534;52.370;4.832;2023-03-21T03:29:24;43.10;36.15;67.92;;
69668;Laerm;66534;52.370;4.832;2023-03-21T03:29:59;40.36;35.83;58.06;;
69668;Laerm;66534;52.370;4.832;2023-03-21T03:30:31;41.07;35.82;60.99;;
69668;Laerm;66534;52.370;4.832;2023-03-21T03:31:03;44.33;39.18;54.98;;
69668;Laerm;66534;52.370;4.832;2023-03-21T03:31:38;42.70;37.55;59.50;;
69668;Laerm;66534;52.370;4.832;2023-03-21T03:32:19;41.94;37.04;60.65;;
69668;Laerm;66534;52.370;4.832;2023-03-21T03:32:56;41.34;35.86;63.60;;
69668;Laerm;66534;52.370;4.832;2023-03-21T03:33:28;41.64;37.17;58.86;;
69668;Laerm;66534;52.370;4.832;2023-03-21T03:34:09;44.31;38.24;66.23;;
69668;Laerm;66534;52.370;4.832;2023-03-21T03:34:50;41.58;36.14;59.40;;
69668;Laerm;66534;52.370;4.832;2023-03-21T03:35:25;42.42;36.86;52.71;;
69668;Laerm;66534;52.370;4.832;2023-03-21T03:35:58;46.44;36.74;74.12;;
69668;Laerm;66534;52.370;4.832;2023-03-21T03:36:30;42.35;37.45;58.25;;
69668;Laerm;66534;52.370;4.832;2023-03-21T03:37:09;42.00;36.77;57.36;;
69668;Laerm;66534;52.370;4.832;2023-03-21T03:37:41;41.97;36.67;59.60;;
69668;Laerm;66534;52.370;4.832;2023-03-21T03:38:12;42.76;37.44;55.21;;
69668;Laerm;66534;52.370;4.832;2023-03-21T03:38:45;44.19;38.66;65.71;;
69668;Laerm;66534;52.370;4.832;2023-03-21T03:39:17;44.32;39.00;63.28;;
69668;Laerm;66534;52.370;4.832;2023-03-21T03:40:30;44.78;39.20;59.75;;